sensor_id;sensor_type;location;lat;lon;timestamp;pressure;altitude;pressure_sealevel;temperature;humidity
7337;BME280;54510;42.016;23.098;2023-07-29T00:00:36;-21757.97;;;22.80;42.09
7337;BME280;54510;42.016;23.098;2023-07-29T00:03:01;-21750.03;;;22.51;42.53
7337;BME280;54510;42.016;23.098;2023-07-29T00:05:27;-21748.13;;;22.43;43.11
7337;BME280;54510;42.016;23.098;2023-07-29T00:07:52;-21751.00;;;22.54;43.08
7337;BME280;54510;42.016;23.098;2023-07-29T00:10:17;-21749.63;;;22.49;43.11
7337;BME280;54510;42.016;23.098;2023-07-29T00:12:43;-21741.44;;;22.19;43.41
7337;BME280;54510;42.016;23.098;2023-07-29T00:15:08;-21744.72;;;22.31;43.38
7337;BME280;54510;42.016;23.098;2023-07-29T00:17:34;-21745.25;;;22.33;43.40
7337;BME280;54510;42.016;23.098;2023-07-29T00:19:59;-21749.22;;;22.48;43.25
7337;BME280;54510;42.016;23.098;2023-07-29T00:22:25;-21751.28;;;22.55;43.37
7337;BME280;54510;42.016;23.098;2023-07-29T00:24:54;-21751.41;;;22.56;43.43
7337;BME280;54510;42.016;23.098;2023-07-29T00:27:25;-21751.41;;;22.56;43.49
7337;BME280;54510;42.016;23.098;2023-07-29T00:29:51;-21745.13;;;22.32;44.17
7337;BME280;54510;42.016;23.098;2023-07-29T00:32:17;-21741.84;;;22.20;43.84
7337;BME280;54510;42.016;23.098;2023-07-29T00:34:42;-21741.28;;;22.18;43.99
7337;BME280;54510;42.016;23.098;2023-07-29T00:37:07;-21743.47;;;22.26;44.08
7337;BME280;54510;42.016;23.098;2023-07-29T00:39:33;-21749.22;;;22.48;44.20
7337;BME280;54510;42.016;23.098;2023-07-29T00:41:58;-21744.97;;;22.32;44.18
7337;BME280;54510;42.016;23.098;2023-07-29T00:44:24;-21748.28;;;22.44;43.98
7337;BME280;54510;42.016;23.098;2023-07-29T00:46:52;-21745.41;;;22.33;44.48
7337;BME280;54510;42.016;23.098;2023-07-29T00:49:19;-21741.28;;;22.18;44.61
7337;BME280;54510;42.016;23.098;2023-07-29T00:51:45;-21741.28;;;22.18;44.70
7337;BME280;54510;42.016;23.098;2023-07-29T00:54:10;-21741.84;;;22.20;44.72
7337;BME280;54510;42.016;23.098;2023-07-29T00:56:36;-21740.88;;;22.17;44.27
7337;BME280;54510;42.016;23.098;2023-07-29T00:59:02;-21736.38;;;22.00;44.21
7337;BME280;54510;42.016;23.098;2023-07-29T01:01:28;-21736.78;;;22.01;44.30
7337;BME280;54510;42.016;23.098;2023-07-29T01:03:54;-21740.75;;;22.16;44.26
7337;BME280;54510;42.016;23.098;2023-07-29T01:06:47;-21740.75;;;22.16;44.91
7337;BME280;54510;42.016;23.098;2023-07-29T01:15:38;-21727.63;;;21.67;46.06
7337;BME280;54510;42.016;23.098;2023-07-29T01:18:11;-21727.63;;;21.67;45.79
7337;BME280;54510;42.016;23.098;2023-07-29T01:20:40;-21724.88;;;21.57;45.84
7337;BME280;54510;42.016;23.098;2023-07-29T01:23:08;-21723.91;;;21.54;45.86
7337;BME280;54510;42.016;23.098;2023-07-29T01:25:34;-21712.81;;;21.13;46.77
7337;BME280;54510;42.016;23.098;2023-07-29T01:27:59;-21715.84;;;21.24;46.71
7337;BME280;54510;42.016;23.098;2023-07-29T01:30:30;-21713.66;;;21.16;46.50
7337;BME280;54510;42.016;23.098;2023-07-29T01:35:27;-21713.66;;;21.16;46.86
7337;BME280;54510;42.016;23.098;2023-07-29T01:38:07;-21722.41;;;21.48;46.14
7337;BME280;54510;42.016;23.098;2023-07-29T01:40:35;-21718.03;;;21.32;46.21
7337;BME280;54510;42.016;23.098;2023-07-29T01:43:00;-21718.16;;;21.33;46.53
7337;BME280;54510;42.016;23.098;2023-07-29T01:45:26;-21719.69;;;21.38;46.36
7337;BME280;54510;42.016;23.098;2023-07-29T01:47:52;-21719.41;;;21.37;46.05
7337;BME280;54510;42.016;23.098;2023-07-29T01:50:18;-21727.75;;;21.68;46.04
7337;BME280;54510;42.016;23.098;2023-07-29T01:52:43;-21727.88;;;21.68;46.18
7337;BME280;54510;42.016;23.098;2023-07-29T01:55:08;-21727.34;;;21.66;46.38
7337;BME280;54510;42.016;23.098;2023-07-29T01:57:34;-21724.06;;;21.54;46.84
7337;BME280;54510;42.016;23.098;2023-07-29T01:59:59;-21725.56;;;21.60;47.10
7337;BME280;54510;42.016;23.098;2023-07-29T02:02:25;-21717.22;;;21.29;48.35
7337;BME280;54510;42.016;23.098;2023-07-29T02:04:50;-21718.03;;;21.32;48.13
7337;BME280;54510;42.016;23.098;2023-07-29T02:07:18;-21716.53;;;21.26;48.46
7337;BME280;54510;42.016;23.098;2023-07-29T02:09:44;-21721.19;;;21.44;48.42
7337;BME280;54510;42.016;23.098;2023-07-29T02:12:10;-21712.56;;;21.12;48.81
7337;BME280;54510;42.016;23.098;2023-07-29T02:14:35;-21716.81;;;21.27;48.59
7337;BME280;54510;42.016;23.098;2023-07-29T02:17:00;-21717.50;;;21.30;47.91
7337;BME280;54510;42.016;23.098;2023-07-29T02:19:26;-21713.25;;;21.14;47.75
7337;BME280;54510;42.016;23.098;2023-07-29T02:21:51;-21711.72;;;21.09;47.74
7337;BME280;54510;42.016;23.098;2023-07-29T02:24:16;-21714.34;;;21.18;47.58
7337;BME280;54510;42.016;23.098;2023-07-29T02:26:42;-21716.41;;;21.26;47.25
7337;BME280;54510;42.016;23.098;2023-07-29T02:29:07;-21713.78;;;21.16;47.41
7337;BME280;54510;42.016;23.098;2023-07-29T02:31:33;-21717.09;;;21.28;47.10
7337;BME280;54510;42.016;23.098;2023-07-29T02:34:00;-21713.50;;;21.15;47.41
7337;BME280;54510;42.016;23.098;2023-07-29T02:36:25;-21713.09;;;21.14;46.95
7337;BME280;54510;42.016;23.098;2023-07-29T02:38:51;-21714.47;;;21.19;47.22
7337;BME280;54510;42.016;23.098;2023-07-29T02:41:16;-21718.72;;;21.35;47.27
7337;BME280;54510;42.016;23.098;2023-07-29T02:43:43;-21712.97;;;21.13;47.97
7337;BME280;54510;42.016;23.098;2023-07-29T02:46:08;-21699.81;;;20.65;48.44
7337;BME280;54510;42.016;23.098;2023-07-29T02:48:34;-21705.44;;;20.85;48.38
7337;BME280;54510;42.016;23.098;2023-07-29T02:50:59;-21708.72;;;20.98;47.79
7337;BME280;54510;42.016;23.098;2023-07-29T02:53:25;-21712.00;;;21.10;47.97
7337;BME280;54510;42.016;23.098;2023-07-29T02:55:50;-21711.47;;;21.08;47.85
7337;BME280;54510;42.016;23.098;2023-07-29T02:58:16;-21715.16;;;21.21;48.12
7337;BME280;54510;42.016;23.098;2023-07-29T03:00:41;-21704.06;;;20.80;49.02
7337;BME280;54510;42.016;23.098;2023-07-29T03:03:10;-21709.28;;;21.00;48.81
7337;BME280;54510;42.016;23.098;2023-07-29T03:05:35;-21710.50;;;21.04;48.57
7337;BME280;54510;42.016;23.098;2023-07-29T03:08:01;-21714.47;;;21.19;48.71
7337;BME280;54510;42.016;23.098;2023-07-29T03:10:26;-21712.16;;;21.10;48.54
7337;BME280;54510;42.016;23.098;2023-07-29T03:12:54;-21713.66;;;21.16;48.51
7337;BME280;54510;42.016;23.098;2023-07-29T03:15:23;-21711.06;;;21.06;48.88
7337;BME280;54510;42.016;23.098;2023-07-29T03:17:50;-21707.91;;;20.95;48.90
7337;BME280;54510;42.016;23.098;2023-07-29T03:20:15;-21707.91;;;20.95;48.85
7337;BME280;54510;42.016;23.098;2023-07-29T03:22:43;-21707.63;;;20.94;49.06
7337;BME280;54510;42.016;23.098;2023-07-29T03:25:08;-21709.13;;;20.99;48.73
7337;BME280;54510;42.016;23.098;2023-07-29T03:27:34;-21709.81;;;21.02;48.88
7337;BME280;54510;42.016;23.098;2023-07-29T03:30:02;-21710.50;;;21.04;48.63
7337;BME280;54510;42.016;23.098;2023-07-29T03:32:27;-21711.31;;;21.07;48.60
7337;BME280;54510;42.016;23.098;2023-07-29T03:34:53;-21710.91;;;21.06;48.68
7337;BME280;54510;42.016;23.098;2023-07-29T03:37:19;-21712.16;;;21.10;48.72
7337;BME280;54510;42.016;23.098;2023-07-29T03:39:45;-21707.34;;;20.93;49.27
7337;BME280;54510;42.016;23.098;2023-07-29T03:42:10;-21707.06;;;20.92;49.40
7337;BME280;54510;42.016;23.098;2023-07-29T03:44:35;-21709.41;;;21.00;49.54
7337;BME280;54510;42.016;23.098;2023-07-29T03:47:01;-21708.84;;;20.98;49.43
7337;BME280;54510;42.016;23.098;2023-07-29T03:49:26;-21711.19;;;21.07;49.54
7337;BME280;54510;42.016;23.098;2023-07-29T03:51:52;-21704.88;;;20.83;50.24
7337;BME280;54510;42.016;23.098;2023-07-29T03:54:17;-21705.16;;;20.84;50.15
7337;BME280;54510;42.016;23.098;2023-07-29T03:56:42;-21698.31;;;20.59;50.41
7337;BME280;54510;42.016;23.098;2023-07-29T03:59:08;-21701.72;;;20.72;50.25
7337;BME280;54510;42.016;23.098;2023-07-29T04:01:33;-21705.72;;;20.86;49.34
7337;BME280;54510;42.016;23.098;2023-07-29T04:03:59;-21700.63;;;20.68;49.36
7337;BME280;54510;42.016;23.098;2023-07-29T04:06:24;-21699.13;;;20.62;49.87
7337;BME280;54510;42.016;23.098;2023-07-29T04:08:50;-21699.13;;;20.62;49.79
7337;BME280;54510;42.016;23.098;2023-07-29T04:11:15;-21701.06;;;20.69;49.56
7337;BME280;54510;42.016;23.098;2023-07-29T04:13:41;-21698.03;;;20.58;49.94
7337;BME280;54510;42.016;23.098;2023-07-29T04:16:07;-21696.13;;;20.51;49.84
7337;BME280;54510;42.016;23.098;2023-07-29T04:18:32;-21701.59;;;20.71;49.20
7337;BME280;54510;42.016;23.098;2023-07-29T04:20:58;-21700.50;;;20.67;49.20
7337;BME280;54510;42.016;23.098;2023-07-29T04:23:23;-21696.13;;;20.51;49.49
7337;BME280;54510;42.016;23.098;2023-07-29T04:25:49;-21702.00;;;20.73;49.48
7337;BME280;54510;42.016;23.098;2023-07-29T04:28:15;-21703.78;;;20.79;49.06
7337;BME280;54510;42.016;23.098;2023-07-29T04:30:41;-21705.44;;;20.85;48.47
7337;BME280;54510;42.016;23.098;2023-07-29T04:33:06;-21716.53;;;21.26;47.89
7337;BME280;54510;42.016;23.098;2023-07-29T04:35:31;-21717.63;;;21.31;48.75
7337;BME280;54510;42.016;23.098;2023-07-29T04:37:57;-21721.88;;;21.46;48.76
7337;BME280;54510;42.016;23.098;2023-07-29T04:40:22;-21724.06;;;21.54;48.47
7337;BME280;54510;42.016;23.098;2023-07-29T04:42:48;-21724.06;;;21.54;48.40
7337;BME280;54510;42.016;23.098;2023-07-29T04:45:13;-21724.34;;;21.55;48.36
7337;BME280;54510;42.016;23.098;2023-07-29T04:47:39;-21724.88;;;21.57;48.51
7337;BME280;54510;42.016;23.098;2023-07-29T04:50:05;-21718.72;;;21.35;48.93
7337;BME280;54510;42.016;23.098;2023-07-29T04:52:31;-21724.88;;;21.57;48.48
7337;BME280;54510;42.016;23.098;2023-07-29T04:54:56;-21726.25;;;21.62;48.38
7337;BME280;54510;42.016;23.098;2023-07-29T04:57:22;-21728.72;;;21.72;48.34
7337;BME280;54510;42.016;23.098;2023-07-29T04:59:47;-21728.84;;;21.72;48.10
7337;BME280;54510;42.016;23.098;2023-07-29T05:02:13;-21730.34;;;21.78;47.99
7337;BME280;54510;42.016;23.098;2023-07-29T05:04:38;-21728.03;;;21.69;47.87
7337;BME280;54510;42.016;23.098;2023-07-29T05:07:04;-21726.66;;;21.64;48.20
7337;BME280;54510;42.016;23.098;2023-07-29T05:09:29;-21728.16;;;21.70;47.95
7337;BME280;54510;42.016;23.098;2023-07-29T05:11:55;-21733.78;;;21.90;47.88
7337;BME280;54510;42.016;23.098;2023-07-29T05:14:20;-21732.25;;;21.85;47.59
7337;BME280;54510;42.016;23.098;2023-07-29T05:16:45;-21733.38;;;21.89;47.76
7337;BME280;54510;42.016;23.098;2023-07-29T05:19:11;-21736.66;;;22.01;47.30
7337;BME280;54510;42.016;23.098;2023-07-29T05:21:37;-21738.56;;;22.08;47.38
7337;BME280;54510;42.016;23.098;2023-07-29T05:24:03;-21743.75;;;22.27;47.16
7337;BME280;54510;42.016;23.098;2023-07-29T05:26:29;-21738.28;;;22.07;46.53
7337;BME280;54510;42.016;23.098;2023-07-29T05:28:54;-21742.13;;;22.21;46.94
7337;BME280;54510;42.016;23.098;2023-07-29T05:31:20;-21742.25;;;22.22;46.74
7337;BME280;54510;42.016;23.098;2023-07-29T05:33:45;-21745.13;;;22.32;46.40
7337;BME280;54510;42.016;23.098;2023-07-29T05:36:10;-21749.50;;;22.49;46.70
7337;BME280;54510;42.016;23.098;2023-07-29T05:38:36;-21750.31;;;22.52;46.02
7337;BME280;54510;42.016;23.098;2023-07-29T05:41:01;-21752.50;;;22.60;45.64
7337;BME280;54510;42.016;23.098;2023-07-29T05:43:27;-21750.44;;;22.52;45.81
7337;BME280;54510;42.016;23.098;2023-07-29T05:45:52;-21753.72;;;22.64;45.42
7337;BME280;54510;42.016;23.098;2023-07-29T05:48:19;-21754.97;;;22.69;45.54
7337;BME280;54510;42.016;23.098;2023-07-29T05:50:45;-21755.09;;;22.69;45.65
7337;BME280;54510;42.016;23.098;2023-07-29T05:53:10;-21762.34;;;22.96;44.75
7337;BME280;54510;42.016;23.098;2023-07-29T05:55:35;-21766.16;;;23.10;44.67
7337;BME280;54510;42.016;23.098;2023-07-29T05:58:01;-21770.81;;;23.28;44.16
7337;BME280;54510;42.016;23.098;2023-07-29T06:00:26;-21775.03;;;23.43;43.87
7337;BME280;54510;42.016;23.098;2023-07-29T06:02:51;-21780.38;;;23.63;43.70
7337;BME280;54510;42.016;23.098;2023-07-29T06:05:17;-21782.81;;;23.72;43.63
7337;BME280;54510;42.016;23.098;2023-07-29T06:07:42;-21782.97;;;23.73;43.40
7337;BME280;54510;42.016;23.098;2023-07-29T06:10:13;-21787.06;;;23.88;42.85
7337;BME280;54510;42.016;23.098;2023-07-29T06:12:39;-21787.59;;;23.90;42.61
7337;BME280;54510;42.016;23.098;2023-07-29T06:15:05;-21786.91;;;23.87;42.62
7337;BME280;54510;42.016;23.098;2023-07-29T06:17:30;-21789.78;;;23.98;42.52
7337;BME280;54510;42.016;23.098;2023-07-29T06:19:56;-21782.97;;;23.73;42.54
7337;BME280;54510;42.016;23.098;2023-07-29T06:22:21;-21790.72;;;24.01;42.09
7337;BME280;54510;42.016;23.098;2023-07-29T06:24:47;-21791.69;;;24.05;41.62
7337;BME280;54510;42.016;23.098;2023-07-29T06:27:12;-21801.38;;;24.41;41.73
7337;BME280;54510;42.016;23.098;2023-07-29T06:29:37;-21802.44;;;24.45;41.25
7337;BME280;54510;42.016;23.098;2023-07-29T06:32:03;-21804.38;;;24.52;41.07
7337;BME280;54510;42.016;23.098;2023-07-29T06:34:28;-21806.28;;;24.59;40.34
7337;BME280;54510;42.016;23.098;2023-07-29T06:36:54;-21809.41;;;24.71;40.65
7337;BME280;54510;42.016;23.098;2023-07-29T06:39:19;-21812.00;;;24.80;40.65
7337;BME280;54510;42.016;23.098;2023-07-29T06:41:44;-21812.81;;;24.84;40.66
7337;BME280;54510;42.016;23.098;2023-07-29T06:44:10;-21807.91;;;24.65;40.91
7337;BME280;54510;42.016;23.098;2023-07-29T06:46:35;-21809.81;;;24.72;41.14
7337;BME280;54510;42.016;23.098;2023-07-29T06:49:01;-21814.44;;;24.90;40.69
7337;BME280;54510;42.016;23.098;2023-07-29T06:51:26;-21821.25;;;25.15;40.25
7337;BME280;54510;42.016;23.098;2023-07-29T06:53:51;-21818.00;;;25.03;40.00
7337;BME280;54510;42.016;23.098;2023-07-29T06:56:17;-21819.34;;;25.08;40.13
7337;BME280;54510;42.016;23.098;2023-07-29T06:58:43;-21821.81;;;25.17;39.58
7337;BME280;54510;42.016;23.098;2023-07-29T07:01:08;-21822.88;;;25.21;39.33
7337;BME280;54510;42.016;23.098;2023-07-29T07:03:33;-21823.72;;;25.24;39.33
7337;BME280;54510;42.016;23.098;2023-07-29T07:05:59;-21826.00;;;25.33;39.20
7337;BME280;54510;42.016;23.098;2023-07-29T07:08:24;-21825.88;;;25.32;39.25
7337;BME280;54510;42.016;23.098;2023-07-29T07:10:50;-21824.53;;;25.27;39.36
7337;BME280;54510;42.016;23.098;2023-07-29T07:13:15;-21829.97;;;25.47;38.71
7337;BME280;54510;42.016;23.098;2023-07-29T07:15:40;-21829.00;;;25.44;38.75
7337;BME280;54510;42.016;23.098;2023-07-29T07:18:06;-21844.25;;;26.01;38.14
7337;BME280;54510;42.016;23.098;2023-07-29T07:20:32;-21844.25;;;26.01;38.30
7337;BME280;54510;42.016;23.098;2023-07-29T07:22:57;-21849.53;;;26.20;38.12
7337;BME280;54510;42.016;23.098;2023-07-29T07:25:22;-21852.13;;;26.30;37.79
7337;BME280;54510;42.016;23.098;2023-07-29T07:27:48;-21849.41;;;26.20;37.40
7337;BME280;54510;42.016;23.098;2023-07-29T07:30:14;-21860.41;;;26.61;37.41
7337;BME280;54510;42.016;23.098;2023-07-29T07:32:39;-21864.34;;;26.75;37.18
7337;BME280;54510;42.016;23.098;2023-07-29T07:35:05;-21867.34;;;26.87;36.83
7337;BME280;54510;42.016;23.098;2023-07-29T07:37:30;-21869.66;;;26.95;36.74
7337;BME280;54510;42.016;23.098;2023-07-29T07:39:56;-21871.28;;;27.01;36.53
7337;BME280;54510;42.016;23.098;2023-07-29T07:42:21;-21876.16;;;27.20;36.63
7337;BME280;54510;42.016;23.098;2023-07-29T07:44:47;-21879.28;;;27.31;36.49
7337;BME280;54510;42.016;23.098;2023-07-29T07:47:12;-21878.22;;;27.27;36.21
7337;BME280;54510;42.016;23.098;2023-07-29T07:49:37;-21881.88;;;27.41;35.68
7337;BME280;54510;42.016;23.098;2023-07-29T07:52:03;-21884.31;;;27.50;35.53
7337;BME280;54510;42.016;23.098;2023-07-29T07:54:28;-21885.13;;;27.53;35.90
7337;BME280;54510;42.016;23.098;2023-07-29T07:56:54;-21887.97;;;27.64;35.51
7337;BME280;54510;42.016;23.098;2023-07-29T07:59:19;-21890.56;;;27.73;35.72
7337;BME280;54510;42.016;23.098;2023-07-29T08:01:44;-21892.44;;;27.80;36.14
7337;BME280;54510;42.016;23.098;2023-07-29T08:04:10;-21899.38;;;28.06;35.84
7337;BME280;54510;42.016;23.098;2023-07-29T08:06:35;-21901.00;;;28.12;34.54
7337;BME280;54510;42.016;23.098;2023-07-29T08:09:01;-21904.13;;;28.24;35.05
7337;BME280;54510;42.016;23.098;2023-07-29T08:11:26;-21904.13;;;28.24;34.63
7337;BME280;54510;42.016;23.098;2023-07-29T08:13:52;-21904.66;;;28.26;34.73
7337;BME280;54510;42.016;23.098;2023-07-29T08:16:17;-21904.78;;;28.26;34.73
7337;BME280;54510;42.016;23.098;2023-07-29T08:18:43;-21899.38;;;28.06;34.98
7337;BME280;54510;42.016;23.098;2023-07-29T08:21:09;-21899.50;;;28.07;34.81
7337;BME280;54510;42.016;23.098;2023-07-29T08:23:35;-21900.44;;;28.10;35.04
7337;BME280;54510;42.016;23.098;2023-07-29T08:26:03;-21902.06;;;28.16;34.94
7337;BME280;54510;42.016;23.098;2023-07-29T08:30:59;-21905.75;;;28.30;34.85
7337;BME280;54510;42.016;23.098;2023-07-29T08:33:25;-21908.84;;;28.42;34.60
7337;BME280;54510;42.016;23.098;2023-07-29T08:35:51;-21916.16;;;28.69;33.89
7337;BME280;54510;42.016;23.098;2023-07-29T08:38:16;-21916.97;;;28.72;33.97
7337;BME280;54510;42.016;23.098;2023-07-29T08:40:45;-21918.59;;;28.78;33.71
7337;BME280;54510;42.016;23.098;2023-07-29T08:43:12;-21926.03;;;29.06;33.68
7337;BME280;54510;42.016;23.098;2023-07-29T08:45:39;-21929.28;;;29.18;32.95
7337;BME280;54510;42.016;23.098;2023-07-29T08:48:08;-21932.81;;;29.31;32.57
7337;BME280;54510;42.016;23.098;2023-07-29T08:50:36;-21934.97;;;29.39;32.21
7337;BME280;54510;42.016;23.098;2023-07-29T08:53:04;-21939.56;;;29.57;31.68
7337;BME280;54510;42.016;23.098;2023-07-29T08:55:30;-21944.44;;;29.75;32.14
7337;BME280;54510;42.016;23.098;2023-07-29T08:57:57;-21948.91;;;29.92;32.04
7337;BME280;54510;42.016;23.098;2023-07-29T09:00:23;-21953.91;;;30.10;31.29
7337;BME280;54510;42.016;23.098;2023-07-29T09:02:49;-21958.91;;;30.29;31.20
7337;BME280;54510;42.016;23.098;2023-07-29T09:05:14;-21960.38;;;30.35;30.79
7337;BME280;54510;42.016;23.098;2023-07-29T09:07:40;-21967.53;;;30.61;30.79
7337;BME280;54510;42.016;23.098;2023-07-29T09:10:08;-21966.31;;;30.57;30.27
7337;BME280;54510;42.016;23.098;2023-07-29T09:12:35;-21970.91;;;30.74;30.36
7337;BME280;54510;42.016;23.098;2023-07-29T09:15:01;-21975.22;;;30.90;30.43
7337;BME280;54510;42.016;23.098;2023-07-29T09:17:26;-21979.16;;;31.05;29.91
7337;BME280;54510;42.016;23.098;2023-07-29T09:19:55;-21978.06;;;31.01;30.42
7337;BME280;54510;42.016;23.098;2023-07-29T09:22:21;-21974.28;;;30.87;30.40
7337;BME280;54510;42.016;23.098;2023-07-29T09:24:47;-21972.41;;;30.80;30.85
7337;BME280;54510;42.016;23.098;2023-07-29T09:27:26;-21979.00;;;31.05;29.97
7337;BME280;54510;42.016;23.098;2023-07-29T09:29:53;-21986.28;;;31.32;29.70
7337;BME280;54510;42.016;23.098;2023-07-29T09:32:23;-21987.91;;;31.38;29.66
7337;BME280;54510;42.016;23.098;2023-07-29T09:34:49;-21987.63;;;31.37;29.83
7337;BME280;54510;42.016;23.098;2023-07-29T09:37:20;-21989.41;;;31.44;28.40
7337;BME280;54510;42.016;23.098;2023-07-29T09:39:47;-21991.69;;;31.52;27.83
7337;BME280;54510;42.016;23.098;2023-07-29T09:42:20;-21985.88;;;31.30;27.69
7337;BME280;54510;42.016;23.098;2023-07-29T09:44:46;-21988.72;;;31.41;28.65
7337;BME280;54510;42.016;23.098;2023-07-29T09:47:22;-21991.81;;;31.53;28.97
7337;BME280;54510;42.016;23.098;2023-07-29T09:49:49;-21993.03;;;31.57;28.82
7337;BME280;54510;42.016;23.098;2023-07-29T09:52:16;-21994.78;;;31.64;27.47
7337;BME280;54510;42.016;23.098;2023-07-29T09:54:43;-21995.31;;;31.66;27.75
7337;BME280;54510;42.016;23.098;2023-07-29T09:57:09;-21998.97;;;31.80;27.20
7337;BME280;54510;42.016;23.098;2023-07-29T09:59:35;-22001.25;;;31.88;27.59
7337;BME280;54510;42.016;23.098;2023-07-29T10:02:00;-21999.38;;;31.81;27.18
7337;BME280;54510;42.016;23.098;2023-07-29T10:04:26;-21999.09;;;31.80;27.28
7337;BME280;54510;42.016;23.098;2023-07-29T10:06:52;-22001.13;;;31.88;27.35
7337;BME280;54510;42.016;23.098;2023-07-29T10:09:20;-22001.53;;;31.89;26.61
7337;BME280;54510;42.016;23.098;2023-07-29T10:11:47;-22007.59;;;32.12;27.33
7337;BME280;54510;42.016;23.098;2023-07-29T10:14:13;-22012.16;;;32.29;27.51
7337;BME280;54510;42.016;23.098;2023-07-29T10:16:42;-22002.47;;;31.93;27.01
7337;BME280;54510;42.016;23.098;2023-07-29T10:19:10;-21995.59;;;31.67;27.02
7337;BME280;54510;42.016;23.098;2023-07-29T10:21:38;-22007.59;;;32.12;27.12
7337;BME280;54510;42.016;23.098;2023-07-29T10:24:06;-22007.31;;;32.11;27.14
7337;BME280;54510;42.016;23.098;2023-07-29T10:26:34;-22010.81;;;32.24;26.91
7337;BME280;54510;42.016;23.098;2023-07-29T10:29:04;-22011.09;;;32.25;27.21
7337;BME280;54510;42.016;23.098;2023-07-29T10:31:31;-22014.59;;;32.38;26.95
7337;BME280;54510;42.016;23.098;2023-07-29T10:33:56;-22020.22;;;32.60;27.13
7337;BME280;54510;42.016;23.098;2023-07-29T10:36:22;-22023.47;;;32.72;26.46
7337;BME280;54510;42.016;23.098;2023-07-29T10:38:48;-22026.69;;;32.84;25.51
7337;BME280;54510;42.016;23.098;2023-07-29T10:41:14;-22025.88;;;32.81;25.40
7337;BME280;54510;42.016;23.098;2023-07-29T10:43:39;-22026.44;;;32.83;24.66
7337;BME280;54510;42.016;23.098;2023-07-29T10:46:19;-22029.53;;;32.94;24.63
7337;BME280;54510;42.016;23.098;2023-07-29T10:51:23;-22033.28;;;33.09;25.00
7337;BME280;54510;42.016;23.098;2023-07-29T10:54:11;-22038.66;;;33.29;24.60
7337;BME280;54510;42.016;23.098;2023-07-29T10:56:42;-22041.06;;;33.38;24.19
7337;BME280;54510;42.016;23.098;2023-07-29T11:01:51;-22036.50;;;33.21;23.76
7337;BME280;54510;42.016;23.098;2023-07-29T11:12:42;-22044.16;;;33.50;23.70
7337;BME280;54510;42.016;23.098;2023-07-29T11:17:47;-22050.09;;;33.72;23.61
7337;BME280;54510;42.016;23.098;2023-07-29T11:20:14;-22056.94;;;33.98;23.05
7337;BME280;54510;42.016;23.098;2023-07-29T11:22:41;-22061.63;;;34.16;22.65
7337;BME280;54510;42.016;23.098;2023-07-29T11:25:09;-22060.81;;;34.13;21.76
7337;BME280;54510;42.016;23.098;2023-07-29T11:27:36;-22065.13;;;34.29;21.87
7337;BME280;54510;42.016;23.098;2023-07-29T11:30:04;-22072.34;;;34.56;20.95
7337;BME280;54510;42.016;23.098;2023-07-29T11:32:34;-22065.13;;;34.29;21.37
7337;BME280;54510;42.016;23.098;2023-07-29T11:35:04;-22074.22;;;34.63;22.46
7337;BME280;54510;42.016;23.098;2023-07-29T11:37:30;-22080.13;;;34.85;20.98
7337;BME280;54510;42.016;23.098;2023-07-29T11:39:55;-22084.16;;;35.01;21.69
7337;BME280;54510;42.016;23.098;2023-07-29T11:42:20;-22080.41;;;34.86;22.32
7337;BME280;54510;42.016;23.098;2023-07-29T11:44:46;-22086.16;;;35.08;22.71
7337;BME280;54510;42.016;23.098;2023-07-29T11:47:12;-22083.09;;;34.97;21.58
7337;BME280;54510;42.016;23.098;2023-07-29T11:49:39;-22085.34;;;35.05;21.44
7337;BME280;54510;42.016;23.098;2023-07-29T11:52:09;-22081.34;;;34.90;21.85
7337;BME280;54510;42.016;23.098;2023-07-29T11:54:39;-22085.63;;;35.06;22.12
7337;BME280;54510;42.016;23.098;2023-07-29T11:57:10;-22088.72;;;35.18;21.47
7337;BME280;54510;42.016;23.098;2023-07-29T11:59:36;-22102.38;;;35.70;21.53
7337;BME280;54510;42.016;23.098;2023-07-29T12:02:07;-22116.56;;;36.23;20.61
7337;BME280;54510;42.016;23.098;2023-07-29T12:04:34;-22125.91;;;36.59;20.23
7337;BME280;54510;42.016;23.098;2023-07-29T12:07:00;-22130.31;;;36.75;20.44
7337;BME280;54510;42.016;23.098;2023-07-29T12:09:26;-22135.94;;;36.97;19.58
7337;BME280;54510;42.016;23.098;2023-07-29T12:11:53;-22132.19;;;36.83;20.09
7337;BME280;54510;42.016;23.098;2023-07-29T12:14:18;-22128.97;;;36.70;20.96
7337;BME280;54510;42.016;23.098;2023-07-29T12:16:44;-22134.59;;;36.92;20.50
7337;BME280;54510;42.016;23.098;2023-07-29T12:19:13;-22129.91;;;36.74;20.08
7337;BME280;54510;42.016;23.098;2023-07-29T12:21:41;-22123.63;;;36.50;21.43
7337;BME280;54510;42.016;23.098;2023-07-29T12:24:07;-22129.13;;;36.71;20.96
7337;BME280;54510;42.016;23.098;2023-07-29T12:26:33;-22133.66;;;36.88;20.52
7337;BME280;54510;42.016;23.098;2023-07-29T12:28:59;-22134.06;;;36.90;20.36
7337;BME280;54510;42.016;23.098;2023-07-29T12:31:31;-22128.03;;;36.67;19.67
7337;BME280;54510;42.016;23.098;2023-07-29T12:33:57;-22133.38;;;36.87;19.04
7337;BME280;54510;42.016;23.098;2023-07-29T12:36:27;-22133.78;;;36.89;19.09
7337;BME280;54510;42.016;23.098;2023-07-29T12:39:05;-22124.97;;;36.55;19.15
7337;BME280;54510;42.016;23.098;2023-07-29T12:41:30;-22141.66;;;37.18;19.54
7337;BME280;54510;42.016;23.098;2023-07-29T12:43:55;-22136.59;;;36.99;20.02
7337;BME280;54510;42.016;23.098;2023-07-29T12:46:21;-22137.53;;;37.03;20.17
7337;BME280;54510;42.016;23.098;2023-07-29T12:48:46;-22142.88;;;37.23;20.58
7337;BME280;54510;42.016;23.098;2023-07-29T12:51:12;-22150.19;;;37.51;19.66
7337;BME280;54510;42.016;23.098;2023-07-29T12:53:38;-22150.47;;;37.52;19.84
7337;BME280;54510;42.016;23.098;2023-07-29T12:56:04;-22160.75;;;37.91;19.18
7337;BME280;54510;42.016;23.098;2023-07-29T12:58:29;-22163.66;;;38.02;18.59
7337;BME280;54510;42.016;23.098;2023-07-29T13:00:54;-22163.28;;;38.01;18.77
7337;BME280;54510;42.016;23.098;2023-07-29T13:03:20;-22160.59;;;37.90;19.21
7337;BME280;54510;42.016;23.098;2023-07-29T13:05:45;-22163.53;;;38.02;19.34
7337;BME280;54510;42.016;23.098;2023-07-29T13:08:10;-22161.41;;;37.93;19.01
7337;BME280;54510;42.016;23.098;2023-07-29T13:10:36;-22161.66;;;37.94;18.73
7337;BME280;54510;42.016;23.098;2023-07-29T13:13:01;-22170.72;;;38.29;18.37